createdAt,value
2017-10-16T00:01:10.231Z,15.20
2017-10-16T00:03:38.472Z,15.20
2017-10-16T00:06:05.936Z,15.20
2017-10-16T00:08:33.432Z,15.20
2017-10-16T00:11:00.908Z,15.20
2017-10-16T00:13:28.371Z,15.20
2017-10-16T00:15:55.848Z,15.20
2017-10-16T00:18:23.325Z,15.20
2017-10-16T00:20:50.787Z,15.20
2017-10-16T00:23:19.031Z,15.10
2017-10-16T00:25:46.523Z,15.10
2017-10-16T00:28:14.787Z,15.10
2017-10-16T00:30:42.260Z,15.10
2017-10-16T00:33:10.508Z,15.10
2017-10-16T00:35:37.979Z,15.00
2017-10-16T00:38:05.460Z,15.00
2017-10-16T00:40:33.689Z,15.00
2017-10-16T00:43:01.149Z,15.00
2017-10-16T00:45:28.636Z,15.00
2017-10-16T00:47:56.867Z,15.00
2017-10-16T00:50:24.336Z,15.00
2017-10-16T00:52:51.813Z,15.00
2017-10-16T00:55:19.267Z,15.00
2017-10-16T00:57:46.731Z,14.90
2017-10-16T01:00:15.988Z,14.90
2017-10-16T01:02:43.449Z,14.90
2017-10-16T01:05:11.769Z,14.90
2017-10-16T01:07:40.012Z,14.90
2017-10-16T01:10:07.485Z,14.80
2017-10-16T01:12:34.996Z,14.80
2017-10-16T01:15:02.468Z,14.80
2017-10-16T01:17:29.935Z,14.90
2017-10-16T01:19:57.402Z,14.90
2017-10-16T01:22:25.672Z,14.90
2017-10-16T01:24:53.167Z,14.90
2017-10-16T01:27:21.406Z,14.90
2017-10-16T01:29:48.887Z,14.90
2017-10-16T01:32:17.138Z,14.80
2017-10-16T01:34:44.598Z,14.80
2017-10-16T01:37:12.155Z,14.80
2017-10-16T01:39:39.628Z,14.80
2017-10-16T01:42:07.083Z,14.80
2017-10-16T01:44:34.551Z,14.80
2017-10-16T01:47:02.784Z,14.80
2017-10-16T01:49:30.294Z,14.80
2017-10-16T01:51:58.524Z,14.80
2017-10-16T01:54:25.999Z,14.80
2017-10-16T01:56:53.467Z,14.80
2017-10-16T01:59:20.922Z,14.90
2017-10-16T02:01:48.391Z,14.90
2017-10-16T02:04:15.864Z,14.90
2017-10-16T02:06:43.318Z,15.00
2017-10-16T02:09:10.800Z,15.00
2017-10-16T02:11:38.387Z,15.00
2017-10-16T02:14:06.656Z,15.10
2017-10-16T02:16:34.118Z,15.10
2017-10-16T02:19:01.588Z,15.10
2017-10-16T02:21:29.058Z,15.10
2017-10-16T02:23:56.527Z,15.10
2017-10-16T02:26:24.765Z,15.20
2017-10-16T02:28:53.002Z,15.20
2017-10-16T02:31:20.480Z,15.20
2017-10-16T02:33:47.944Z,15.20
2017-10-16T02:36:15.405Z,15.20
2017-10-16T02:38:42.875Z,15.20
2017-10-16T02:41:10.350Z,15.30
2017-10-16T02:43:37.808Z,15.20
2017-10-16T02:46:06.776Z,15.30
2017-10-16T02:48:34.238Z,15.30
2017-10-16T02:51:01.707Z,15.40
2017-10-16T02:53:29.174Z,15.40
2017-10-16T02:55:57.417Z,15.40
2017-10-16T02:58:24.903Z,15.40
2017-10-16T03:00:53.158Z,15.40
2017-10-16T03:03:20.631Z,15.40
2017-10-16T03:05:48.342Z,15.40
2017-10-16T03:08:15.802Z,15.40
2017-10-16T03:10:43.268Z,15.40
2017-10-16T03:13:10.727Z,15.40
2017-10-16T03:15:38.198Z,15.40
2017-10-16T03:18:06.340Z,15.40
2017-10-16T03:20:33.815Z,15.40
2017-10-16T03:23:01.289Z,15.40
2017-10-16T03:25:28.763Z,15.40
2017-10-16T03:27:56.218Z,15.40
2017-10-16T03:30:24.473Z,15.40
2017-10-16T03:32:51.948Z,15.30
2017-10-16T03:35:19.407Z,15.40
2017-10-16T03:37:46.889Z,15.40
2017-10-16T03:40:14.374Z,15.40
2017-10-16T03:42:41.831Z,15.40
2017-10-16T03:45:09.308Z,15.30
2017-10-16T03:47:36.786Z,15.30
2017-10-16T03:50:04.251Z,15.30
2017-10-16T03:52:32.495Z,15.30
2017-10-16T03:55:00.795Z,15.30
2017-10-16T03:57:28.250Z,15.30
2017-10-16T03:59:55.733Z,15.40
2017-10-16T04:02:23.207Z,15.30
2017-10-16T04:04:50.673Z,15.40
2017-10-16T04:07:18.152Z,15.40
2017-10-16T04:09:45.629Z,15.30
2017-10-16T04:12:13.087Z,15.30
2017-10-16T04:14:40.560Z,15.40
2017-10-16T04:17:08.800Z,15.40
2017-10-16T04:19:37.970Z,15.40
2017-10-16T04:22:06.306Z,15.40
2017-10-16T04:24:33.786Z,15.30
2017-10-16T04:27:01.262Z,15.40
2017-10-16T04:29:28.731Z,15.40
2017-10-16T04:31:56.227Z,15.40
2017-10-16T04:34:23.709Z,15.40
2017-10-16T04:36:52.728Z,15.40
2017-10-16T04:39:21.718Z,15.40
2017-10-16T04:41:49.185Z,15.40
2017-10-16T04:44:16.654Z,15.30
2017-10-16T04:46:44.136Z,15.30
2017-10-16T04:49:11.600Z,15.30
2017-10-16T04:51:39.064Z,15.30
2017-10-16T04:54:06.532Z,15.20
2017-10-16T04:56:34.020Z,15.20
2017-10-16T04:59:01.482Z,15.20
2017-10-16T05:01:28.963Z,15.20
2017-10-16T05:03:56.435Z,15.10
2017-10-16T05:06:24.602Z,15.10
2017-10-16T05:08:53.356Z,15.10
2017-10-16T05:11:20.817Z,15.10
2017-10-16T05:13:48.359Z,15.00
2017-10-16T05:16:16.829Z,15.00
2017-10-16T05:18:44.517Z,14.90
2017-10-16T05:21:11.982Z,14.90
2017-10-16T05:23:39.468Z,15.00
2017-10-16T05:26:06.955Z,15.10
2017-10-16T05:28:35.197Z,15.10
2017-10-16T05:31:02.671Z,15.00
2017-10-16T05:33:30.903Z,15.10
2017-10-16T05:35:58.395Z,15.10
2017-10-16T05:38:26.622Z,15.00
2017-10-16T05:40:54.096Z,15.00
2017-10-16T05:43:21.584Z,15.00
2017-10-16T05:45:49.143Z,15.00
2017-10-16T05:48:16.611Z,15.00
2017-10-16T05:50:44.888Z,15.00
2017-10-16T05:53:13.112Z,15.10
2017-10-16T05:55:40.600Z,15.00
2017-10-16T05:58:08.060Z,15.10
2017-10-16T06:00:35.528Z,15.20
2017-10-16T06:03:03.776Z,15.40
2017-10-16T06:05:31.250Z,15.30
2017-10-16T06:07:58.713Z,15.40
2017-10-16T06:10:27.843Z,15.60
2017-10-16T06:12:55.409Z,15.60
2017-10-16T06:15:22.877Z,15.60
2017-10-16T06:17:50.495Z,15.70
2017-10-16T06:20:18.738Z,15.90
2017-10-16T06:22:46.292Z,15.90
2017-10-16T06:25:13.757Z,16.00
2017-10-16T06:27:41.259Z,16.00
2017-10-16T06:30:08.884Z,16.10
2017-10-16T06:32:36.352Z,16.20
2017-10-16T06:35:05.597Z,16.30
2017-10-16T06:37:33.267Z,16.30
2017-10-16T06:40:00.855Z,16.40
2017-10-16T06:42:28.338Z,16.50
2017-10-16T06:44:56.584Z,16.70
2017-10-16T06:47:24.072Z,16.60
2017-10-16T06:49:51.579Z,16.70
2017-10-16T06:52:19.059Z,16.80
2017-10-16T06:54:46.538Z,16.70
2017-10-16T06:57:14.815Z,16.80
2017-10-16T06:59:42.310Z,16.80
2017-10-16T07:02:09.804Z,16.90
2017-10-16T07:04:37.313Z,16.90
2017-10-16T07:07:04.850Z,16.90
2017-10-16T07:09:33.092Z,16.90
2017-10-16T07:12:00.579Z,17.00
2017-10-16T07:14:28.824Z,17.10
2017-10-16T07:16:56.313Z,17.00
2017-10-16T07:19:24.581Z,17.20
2017-10-16T07:21:52.864Z,17.20
2017-10-16T07:24:21.134Z,17.20
2017-10-16T07:26:49.388Z,17.30
2017-10-16T07:29:16.867Z,17.30
2017-10-16T07:31:45.119Z,17.30
2017-10-16T07:34:12.595Z,17.30
2017-10-16T07:36:40.830Z,17.30
2017-10-16T07:39:08.312Z,17.30
2017-10-16T07:41:35.796Z,17.30
2017-10-16T07:44:06.061Z,17.30
2017-10-16T07:46:33.522Z,17.30
2017-10-16T07:49:00.999Z,17.40
2017-10-16T07:51:29.242Z,17.40
2017-10-16T07:53:56.724Z,17.40
2017-10-16T07:56:25.691Z,17.50
2017-10-16T07:58:53.175Z,17.50
2017-10-16T08:01:20.661Z,17.60
2017-10-16T08:03:48.913Z,17.70
2017-10-16T08:06:16.399Z,17.70
2017-10-16T08:08:43.882Z,17.80
2017-10-16T08:11:11.348Z,17.90
2017-10-16T08:13:38.823Z,17.90
2017-10-16T08:16:06.302Z,18.00
2017-10-16T08:18:33.763Z,18.00
2017-10-16T08:21:01.263Z,18.10
2017-10-16T08:23:28.731Z,18.20
2017-10-16T08:25:56.196Z,18.30
2017-10-16T08:28:23.680Z,18.30
2017-10-16T08:30:51.148Z,18.40
2017-10-16T08:33:18.621Z,18.50
2017-10-16T08:35:47.729Z,18.70
2017-10-16T08:38:15.204Z,18.70
2017-10-16T08:40:42.668Z,18.80
2017-10-16T08:43:10.147Z,18.90
2017-10-16T08:45:39.064Z,19.00
2017-10-16T08:48:07.310Z,19.20
2017-10-16T08:50:34.798Z,19.20
2017-10-16T08:53:03.046Z,19.30
2017-10-16T08:55:30.522Z,19.30
2017-10-16T08:57:58.796Z,19.60
2017-10-16T09:00:35.748Z,19.60
2017-10-16T09:03:03.335Z,19.80
2017-10-16T09:05:30.827Z,20.00
2017-10-16T09:07:58.303Z,20.10
2017-10-16T09:10:25.800Z,20.20
2017-10-16T09:12:53.305Z,20.40
2017-10-16T09:15:20.783Z,20.60
2017-10-16T09:17:48.257Z,20.70
2017-10-16T09:20:15.729Z,20.70
2017-10-16T09:22:43.191Z,20.80
2017-10-16T09:25:10.665Z,20.80
2017-10-16T09:27:38.899Z,20.90
2017-10-16T09:30:06.889Z,20.90
2017-10-16T09:32:34.375Z,20.90
2017-10-16T09:35:01.857Z,20.90
2017-10-16T09:37:29.315Z,21.00
2017-10-16T09:39:56.869Z,21.10
2017-10-16T09:42:24.334Z,21.20
2017-10-16T09:44:51.791Z,21.20
2017-10-16T09:47:19.287Z,21.20
2017-10-16T09:49:46.871Z,21.20
2017-10-16T09:52:15.106Z,21.50
2017-10-16T09:54:42.621Z,21.50
2017-10-16T09:57:10.093Z,21.70
2017-10-16T09:59:37.567Z,21.80
2017-10-16T10:02:05.351Z,22.00
2017-10-16T10:04:32.820Z,22.10
2017-10-16T10:07:00.309Z,22.00
2017-10-16T10:09:27.795Z,22.10
2017-10-16T10:11:55.307Z,22.10
2017-10-16T10:14:24.437Z,22.60
2017-10-16T10:16:51.918Z,22.50
2017-10-16T10:19:19.396Z,22.90
2017-10-16T10:21:46.888Z,23.30
2017-10-16T10:24:14.369Z,23.40
2017-10-16T10:26:41.827Z,23.40
2017-10-16T10:29:09.289Z,23.40
2017-10-16T10:31:36.784Z,23.50
2017-10-16T10:34:04.299Z,23.40
2017-10-16T10:36:31.768Z,23.40
2017-10-16T10:38:59.864Z,23.40
2017-10-16T10:41:27.344Z,23.30
2017-10-16T10:43:55.601Z,23.70
2017-10-16T10:46:23.116Z,23.70
2017-10-16T10:48:50.604Z,24.10
2017-10-16T10:51:18.096Z,24.20
2017-10-16T10:53:45.647Z,24.00
2017-10-16T10:56:13.906Z,24.20
2017-10-16T10:58:42.293Z,24.20
2017-10-16T11:01:10.544Z,24.70
2017-10-16T11:03:38.019Z,24.60
2017-10-16T11:06:05.495Z,24.90
2017-10-16T11:08:33.737Z,25.20
2017-10-16T11:11:01.209Z,25.20
2017-10-16T11:13:28.687Z,25.50
2017-10-16T11:15:56.154Z,25.70
2017-10-16T11:18:23.965Z,25.90
2017-10-16T11:20:51.441Z,26.30
2017-10-16T11:23:18.894Z,26.70
2017-10-16T11:25:47.224Z,26.50
2017-10-16T11:28:14.699Z,26.50
2017-10-16T11:30:43.059Z,25.50
2017-10-16T11:33:10.520Z,25.50
2017-10-16T11:35:38.012Z,25.30
2017-10-16T11:38:06.079Z,25.10
2017-10-16T11:40:33.552Z,24.90
2017-10-16T11:43:01.032Z,24.90
2017-10-16T11:45:29.269Z,24.80
2017-10-16T11:47:56.740Z,24.70
2017-10-16T11:50:24.280Z,24.60
2017-10-16T11:52:51.756Z,24.40
2017-10-16T11:55:19.227Z,24.40
2017-10-16T11:57:48.224Z,24.40
2017-10-16T12:00:16.456Z,24.40
2017-10-16T12:02:43.936Z,24.40
2017-10-16T12:05:11.576Z,24.50
2017-10-16T12:07:39.126Z,24.60
2017-10-16T12:10:06.611Z,24.70
2017-10-16T12:12:34.096Z,24.80
2017-10-16T12:15:01.599Z,24.80
2017-10-16T12:17:29.077Z,24.90
2017-10-16T12:19:56.555Z,25.00
2017-10-16T12:22:24.811Z,25.00
2017-10-16T12:24:52.271Z,24.90
2017-10-16T12:27:19.751Z,25.00
2017-10-16T12:29:47.980Z,25.10
2017-10-16T12:32:16.208Z,25.20
2017-10-16T12:34:43.709Z,25.10
2017-10-16T12:37:11.179Z,25.20
2017-10-16T12:39:38.664Z,25.30
2017-10-16T12:42:06.916Z,25.60
2017-10-16T12:44:34.379Z,25.50
2017-10-16T12:47:01.847Z,25.70
2017-10-16T12:49:29.321Z,25.70
2017-10-16T12:51:56.833Z,25.70
2017-10-16T12:54:24.287Z,25.70
2017-10-16T12:56:51.785Z,25.80
2017-10-16T12:59:20.037Z,25.90
2017-10-16T13:01:47.495Z,25.90
2017-10-16T13:04:16.905Z,26.10
2017-10-16T13:06:44.374Z,26.30
2017-10-16T13:09:12.616Z,26.30
2017-10-16T13:11:40.102Z,26.30
2017-10-16T13:14:08.333Z,26.40
2017-10-16T13:16:35.803Z,26.40
2017-10-16T13:19:03.288Z,26.40
2017-10-16T13:21:31.564Z,26.50
2017-10-16T13:23:59.792Z,26.60
2017-10-16T13:26:27.285Z,26.50
2017-10-16T13:28:54.819Z,26.50
2017-10-16T13:31:22.255Z,26.40
2017-10-16T13:33:49.726Z,26.40
2017-10-16T13:36:17.186Z,26.30
2017-10-16T13:38:45.422Z,26.20
2017-10-16T13:41:12.899Z,26.10
2017-10-16T13:43:40.428Z,26.00
2017-10-16T13:46:09.641Z,25.90
2017-10-16T13:48:37.120Z,25.90
2017-10-16T13:51:04.997Z,25.90
2017-10-16T13:53:32.462Z,25.90
2017-10-16T13:55:59.936Z,25.90
2017-10-16T13:58:27.407Z,25.80
2017-10-16T14:00:55.652Z,25.70
2017-10-16T14:03:23.139Z,25.70
2017-10-16T14:05:51.388Z,25.60
2017-10-16T14:08:18.866Z,25.60
2017-10-16T14:10:47.113Z,25.40
2017-10-16T14:13:14.606Z,25.40
2017-10-16T14:15:42.856Z,25.70
2017-10-16T14:18:10.337Z,25.70
2017-10-16T14:20:38.580Z,25.90
2017-10-16T14:23:06.056Z,25.90
2017-10-16T14:25:33.536Z,25.90
2017-10-16T14:28:01.022Z,25.90
2017-10-16T14:30:28.497Z,25.90
2017-10-16T14:32:55.961Z,25.80
2017-10-16T14:35:23.447Z,25.60
2017-10-16T14:37:50.915Z,25.50
2017-10-16T14:40:19.150Z,25.20
2017-10-16T14:42:46.629Z,25.20
2017-10-16T14:45:14.099Z,25.20
2017-10-16T14:47:42.323Z,25.10
2017-10-16T14:50:09.792Z,25.10
2017-10-16T14:52:37.258Z,25.10
2017-10-16T14:55:04.727Z,25.10
2017-10-16T14:57:32.212Z,25.00
2017-10-16T15:00:00.468Z,25.00
2017-10-16T15:02:28.712Z,24.90
2017-10-16T15:04:56.200Z,24.90
2017-10-16T15:07:24.427Z,24.80
2017-10-16T15:09:51.917Z,24.80
2017-10-16T15:12:19.380Z,24.80
2017-10-16T15:14:47.122Z,24.80
2017-10-16T15:17:14.579Z,24.80
2017-10-16T15:19:42.058Z,24.70
2017-10-16T15:22:09.521Z,24.70
2017-10-16T15:24:37.751Z,24.50
2017-10-16T15:27:05.234Z,24.50
2017-10-16T15:29:32.716Z,24.50
2017-10-16T15:32:01.286Z,24.30
2017-10-16T15:34:28.790Z,24.30
2017-10-16T15:36:56.270Z,24.20
2017-10-16T15:39:23.748Z,24.10
2017-10-16T15:41:51.232Z,24.00
2017-10-16T15:44:19.463Z,23.70
2017-10-16T15:46:46.994Z,23.70
2017-10-16T15:49:14.476Z,23.50
2017-10-16T15:51:41.964Z,23.40
2017-10-16T15:54:09.423Z,23.20
2017-10-16T15:56:37.680Z,23.10
2017-10-16T15:59:05.167Z,23.00
2017-10-16T16:01:33.400Z,22.80
2017-10-16T16:04:00.892Z,22.80
2017-10-16T16:06:29.143Z,22.60
2017-10-16T16:08:56.627Z,22.60
2017-10-16T16:11:25.001Z,22.40
2017-10-16T16:13:53.318Z,22.30
2017-10-16T16:16:20.796Z,22.30
2017-10-16T16:18:48.302Z,22.20
2017-10-16T16:21:15.827Z,22.10
2017-10-16T16:23:43.300Z,22.00
2017-10-16T16:26:10.779Z,22.00
2017-10-16T16:28:39.012Z,21.80
2017-10-16T16:31:06.491Z,21.80
2017-10-16T16:33:34.761Z,21.70
2017-10-16T16:36:02.233Z,21.70
2017-10-16T16:38:30.480Z,21.60
2017-10-16T16:40:57.975Z,21.60
2017-10-16T16:43:25.560Z,21.50
2017-10-16T16:45:53.032Z,21.50
2017-10-16T16:48:20.505Z,21.40
2017-10-16T16:50:47.973Z,21.40
2017-10-16T16:53:15.439Z,21.30
2017-10-16T16:55:43.713Z,21.30
2017-10-16T16:58:11.997Z,21.20
2017-10-16T17:00:40.232Z,21.20
2017-10-16T17:03:07.731Z,21.20
2017-10-16T17:05:35.963Z,21.10
2017-10-16T17:08:04.067Z,21.00
2017-10-16T17:10:31.550Z,21.00
2017-10-16T17:12:59.076Z,21.00
2017-10-16T17:15:26.568Z,20.90
2017-10-16T17:17:54.053Z,20.90
2017-10-16T17:20:21.581Z,20.80
2017-10-16T17:22:49.048Z,20.80
2017-10-16T17:25:16.518Z,20.70
2017-10-16T17:27:44.037Z,20.70
2017-10-16T17:30:12.260Z,20.60
2017-10-16T17:32:39.728Z,20.60
2017-10-16T17:35:07.241Z,20.50
2017-10-16T17:37:35.468Z,20.50
2017-10-16T17:40:02.993Z,20.50
2017-10-16T17:42:30.490Z,20.40
2017-10-16T17:44:57.959Z,20.40
2017-10-16T17:47:26.286Z,20.30
2017-10-16T17:49:54.516Z,20.20
2017-10-16T17:52:21.974Z,20.20
2017-10-16T17:54:50.223Z,20.20
2017-10-16T17:57:17.733Z,20.20
2017-10-16T17:59:45.973Z,20.20
2017-10-16T18:02:13.431Z,20.10
2017-10-16T18:04:40.991Z,20.10
2017-10-16T18:07:08.489Z,20.10
2017-10-16T18:09:36.704Z,20.10
2017-10-16T18:12:04.204Z,20.10
2017-10-16T18:14:31.712Z,20.10
2017-10-16T18:16:59.179Z,20.10
2017-10-16T18:19:26.664Z,20.00
2017-10-16T18:21:54.904Z,19.90
2017-10-16T18:24:22.375Z,19.90
2017-10-16T18:26:49.851Z,19.90
2017-10-16T18:29:18.176Z,19.80
2017-10-16T18:31:47.451Z,19.80
2017-10-16T18:34:15.028Z,19.80
2017-10-16T18:36:43.089Z,19.80
2017-10-16T18:39:10.633Z,19.70
2017-10-16T18:41:38.235Z,19.70
2017-10-16T18:44:07.286Z,19.70
2017-10-16T18:46:34.916Z,19.70
2017-10-16T18:49:03.012Z,19.60
2017-10-16T18:51:31.224Z,19.60
2017-10-16T18:53:58.695Z,19.60
2017-10-16T18:56:26.627Z,19.50
2017-10-16T18:58:54.316Z,19.50
2017-10-16T19:01:23.569Z,19.50
2017-10-16T19:03:52.869Z,19.50
2017-10-16T19:06:20.348Z,19.50
2017-10-16T19:08:48.670Z,19.50
2017-10-16T19:11:16.169Z,19.50
2017-10-16T19:13:44.411Z,19.50
2017-10-16T19:16:13.429Z,19.50
2017-10-16T19:18:42.877Z,19.40
2017-10-16T19:21:10.445Z,19.40
2017-10-16T19:23:37.928Z,19.40
2017-10-16T19:26:05.423Z,19.40
2017-10-16T19:28:32.929Z,19.40
2017-10-16T19:31:01.717Z,19.30
2017-10-16T19:33:29.199Z,19.30
2017-10-16T19:35:57.600Z,19.30
2017-10-16T19:38:25.083Z,19.30
2017-10-16T19:40:53.970Z,19.20
2017-10-16T19:43:22.464Z,19.30
2017-10-16T19:45:50.213Z,19.30
2017-10-16T19:48:17.808Z,19.40
2017-10-16T19:50:45.275Z,19.40
2017-10-16T19:53:13.347Z,19.40
2017-10-16T19:55:41.700Z,19.50
2017-10-16T19:58:09.191Z,19.50
2017-10-16T20:00:37.448Z,19.50
2017-10-16T20:03:06.044Z,19.50
2017-10-16T20:05:34.277Z,19.50
2017-10-16T20:08:02.567Z,19.50
2017-10-16T20:10:30.022Z,19.50
2017-10-16T20:12:57.490Z,19.50
2017-10-16T20:15:24.984Z,19.50
2017-10-16T20:17:53.216Z,19.50
2017-10-16T20:20:20.683Z,19.40
2017-10-16T20:22:48.180Z,19.40
2017-10-16T20:25:15.649Z,19.50
2017-10-16T20:27:43.191Z,19.40
2017-10-16T20:30:10.689Z,19.40
2017-10-16T20:32:38.167Z,19.40
2017-10-16T20:35:05.667Z,19.30
2017-10-16T20:37:33.994Z,19.20
2017-10-16T20:40:01.459Z,19.20
2017-10-16T20:42:28.935Z,19.20
2017-10-16T20:44:57.189Z,19.10
2017-10-16T20:47:24.676Z,19.10
2017-10-16T20:49:52.908Z,19.00
2017-10-16T20:52:20.387Z,19.00
2017-10-16T20:54:48.089Z,19.00
2017-10-16T20:57:16.104Z,18.90
2017-10-16T20:59:43.636Z,18.90
2017-10-16T21:02:11.203Z,18.80
2017-10-16T21:04:38.691Z,18.70
2017-10-16T21:07:06.165Z,18.60
2017-10-16T21:09:34.432Z,18.50
2017-10-16T21:12:02.677Z,18.40
2017-10-16T21:14:30.166Z,18.40
2017-10-16T21:16:57.631Z,18.40
2017-10-16T21:19:25.926Z,18.30
2017-10-16T21:21:53.443Z,18.30
2017-10-16T21:24:20.918Z,18.30
2017-10-16T21:26:49.159Z,18.30
2017-10-16T21:29:16.640Z,18.20
2017-10-16T21:31:44.117Z,18.20
2017-10-16T21:34:11.604Z,18.20
2017-10-16T21:36:39.159Z,18.20
2017-10-16T21:39:06.631Z,18.10
2017-10-16T21:41:34.451Z,18.20
2017-10-16T21:44:02.687Z,18.20
2017-10-16T21:46:30.151Z,18.20
2017-10-16T21:48:57.617Z,18.20
2017-10-16T21:51:25.095Z,18.20
2017-10-16T21:53:52.596Z,18.20
2017-10-16T21:56:20.060Z,18.20
2017-10-16T21:58:47.539Z,18.20
2017-10-16T22:01:15.017Z,18.20
2017-10-16T22:03:43.286Z,18.10
2017-10-16T22:06:10.751Z,18.10
2017-10-16T22:08:38.989Z,18.00
2017-10-16T22:11:06.464Z,18.00
2017-10-16T22:13:34.040Z,18.00
2017-10-16T22:16:01.533Z,18.00
2017-10-16T22:18:28.991Z,17.90
2017-10-16T22:20:56.977Z,17.90
2017-10-16T22:23:24.440Z,17.80
2017-10-16T22:25:51.907Z,17.80
2017-10-16T22:28:19.386Z,17.70
2017-10-16T22:30:47.618Z,17.60
2017-10-16T22:33:15.088Z,17.60
2017-10-16T22:35:42.568Z,17.60
2017-10-16T22:38:10.016Z,17.60
2017-10-16T22:40:37.470Z,17.50
2017-10-16T22:43:04.950Z,17.50
2017-10-16T22:45:33.171Z,17.40
2017-10-16T22:48:00.633Z,17.40
2017-10-16T22:50:28.106Z,17.30
2017-10-16T22:52:56.486Z,17.30
2017-10-16T22:55:23.946Z,17.20
2017-10-16T22:57:51.414Z,17.20
2017-10-16T23:00:18.866Z,17.20
2017-10-16T23:02:46.330Z,17.10
2017-10-16T23:05:13.798Z,17.10
2017-10-16T23:07:42.058Z,17.00
2017-10-16T23:10:09.618Z,17.00
2017-10-16T23:12:37.078Z,16.90
2017-10-16T23:15:04.534Z,16.90
2017-10-16T23:17:32.066Z,16.90
2017-10-16T23:19:59.582Z,16.80
2017-10-16T23:22:27.041Z,16.80
2017-10-16T23:24:54.534Z,16.70
2017-10-16T23:27:21.990Z,16.70
2017-10-16T23:29:49.456Z,16.60
2017-10-16T23:32:16.926Z,16.60
2017-10-16T23:34:44.392Z,16.60
2017-10-16T23:37:12.113Z,16.50
2017-10-16T23:39:39.585Z,16.50
2017-10-16T23:42:07.053Z,16.50
2017-10-16T23:44:35.147Z,16.50
2017-10-16T23:47:03.390Z,16.50
2017-10-16T23:49:30.846Z,16.40
2017-10-16T23:51:58.302Z,16.40
2017-10-16T23:54:26.725Z,16.30
2017-10-16T23:56:54.977Z,16.30
2017-10-16T23:59:22.447Z,16.30
